createdAt,value
2023-05-13T00:02:23.406Z,97657.66
2023-05-13T00:05:00.876Z,97676.78
2023-05-13T00:07:35.350Z,97676.19
2023-05-13T00:10:08.137Z,97671.47
2023-05-13T00:12:40.363Z,97666.44
2023-05-13T00:15:12.134Z,97669.56
2023-05-13T00:17:48.949Z,97673.47
2023-05-13T00:20:22.032Z,97674.41
2023-05-13T00:22:57.653Z,97670.34
2023-05-13T00:25:26.993Z,97679.59
2023-05-13T00:27:59.837Z,97686.19
2023-05-13T00:30:34.482Z,97675.41
2023-05-13T00:33:08.650Z,97671.66
2023-05-13T00:35:35.856Z,97672.56
2023-05-13T00:38:10.127Z,97671.53
2023-05-13T00:40:42.312Z,97676.84
2023-05-13T00:43:20.868Z,97680.22
2023-05-13T00:45:53.570Z,97683.06
2023-05-13T00:48:32.097Z,97666.13
2023-05-13T00:51:03.848Z,97681.16
2023-05-13T00:53:35.367Z,97694.59
2023-05-13T00:56:09.720Z,97690.44
2023-05-13T00:58:41.364Z,97693.56
2023-05-13T01:01:23.145Z,97694.78
2023-05-13T01:04:28.292Z,97684.25
2023-05-13T01:07:18.095Z,97691.31
2023-05-13T01:10:34.523Z,97678.75
2023-05-13T01:13:06.764Z,97682.75
2023-05-13T01:15:43.512Z,97669.50
2023-05-13T01:18:23.191Z,97684.91
2023-05-13T01:20:56.193Z,97673.91
2023-05-13T01:23:30.894Z,97680.75
2023-05-13T01:26:05.109Z,97682.72
2023-05-13T01:28:40.587Z,97659.59
2023-05-13T01:31:14.012Z,97690.28
2023-05-13T01:33:53.692Z,97684.78
2023-05-13T01:36:20.957Z,97684.59
2023-05-13T01:38:48.908Z,97691.75
2023-05-13T01:41:15.802Z,97690.63
2023-05-13T01:43:42.495Z,97683.91
2023-05-13T01:46:12.958Z,97692.69
2023-05-13T01:48:39.660Z,97692.91
2023-05-13T01:51:06.729Z,97691.94
2023-05-13T01:53:33.709Z,97696.88
2023-05-13T01:56:00.297Z,97702.84
2023-05-13T01:58:26.904Z,97696.44
2023-05-13T02:00:53.510Z,97693.41
2023-05-13T02:03:20.943Z,97688.69
2023-05-13T02:05:48.736Z,97700.16
2023-05-13T02:08:15.363Z,97697.91
2023-05-13T02:10:41.988Z,97696.56
2023-05-13T02:13:08.765Z,97698.78
2023-05-13T02:15:35.582Z,97708.69
2023-05-13T02:18:02.290Z,97682.63
2023-05-13T02:20:28.973Z,97706.47
2023-05-13T02:22:55.630Z,97709.16
2023-05-13T02:25:22.380Z,97710.72
2023-05-13T02:27:49.003Z,97706.69
2023-05-13T02:30:16.088Z,97713.66
2023-05-13T02:32:44.083Z,97711.50
2023-05-13T02:35:10.962Z,97716.56
2023-05-13T02:37:37.612Z,97710.16
2023-05-13T02:40:04.801Z,97710.03
2023-05-13T02:42:31.387Z,97711.28
2023-05-13T02:44:58.696Z,97713.75
2023-05-13T02:47:25.416Z,97715.78
2023-05-13T02:49:52.055Z,97711.28
2023-05-13T02:52:18.664Z,97714.97
2023-05-13T02:54:45.324Z,97706.47
2023-05-13T02:57:11.930Z,97719.59
2023-05-13T02:59:38.563Z,97722.41
2023-05-13T03:02:05.497Z,97715.09
2023-05-13T03:04:32.109Z,97707.13
2023-05-13T03:06:58.968Z,97683.63
2023-05-13T03:09:25.616Z,97705.56
2023-05-13T03:11:52.361Z,97703.06
2023-05-13T03:14:19.005Z,97696.97
2023-05-13T03:16:45.618Z,97715.50
2023-05-13T03:19:12.238Z,97724.66
2023-05-13T03:21:39.182Z,97713.50
2023-05-13T03:24:06.360Z,97724.19
2023-05-13T03:26:33.054Z,97723.88
2023-05-13T03:28:59.809Z,97732.97
2023-05-13T03:31:26.643Z,97739.06
2023-05-13T03:33:53.328Z,97742.41
2023-05-13T03:36:19.918Z,97737.47
2023-05-13T03:38:46.537Z,97740.63
2023-05-13T03:41:13.361Z,97739.50
2023-05-13T03:43:40.054Z,97739.16
2023-05-13T03:46:06.643Z,97750.63
2023-05-13T03:48:33.304Z,97742.19
2023-05-13T03:50:59.921Z,97744.69
2023-05-13T03:53:26.631Z,97744.44
2023-05-13T03:55:53.514Z,97746.03
2023-05-13T03:58:21.776Z,97746.81
2023-05-13T04:00:49.117Z,97749.72
2023-05-13T04:03:16.465Z,97749.19
2023-05-13T04:05:43.793Z,97746.91
2023-05-13T04:08:11.411Z,97745.00
2023-05-13T04:10:38.191Z,97757.06
2023-05-13T04:13:04.914Z,97750.88
2023-05-13T04:15:31.872Z,97748.84
2023-05-13T04:17:59.184Z,97754.03
2023-05-13T04:20:26.171Z,97772.03
2023-05-13T04:22:52.861Z,97770.97
2023-05-13T04:25:19.511Z,97773.00
2023-05-13T04:27:47.688Z,97756.13
2023-05-13T04:30:14.476Z,97776.28
2023-05-13T04:32:41.106Z,97774.84
2023-05-13T04:35:08.617Z,97780.22
2023-05-13T04:37:35.183Z,97784.50
2023-05-13T04:40:01.879Z,97789.22
2023-05-13T04:42:28.565Z,97785.03
2023-05-13T04:44:55.310Z,97785.41
2023-05-13T04:47:22.720Z,97762.34
2023-05-13T04:49:49.154Z,97793.13
2023-05-13T04:52:16.233Z,97786.81
2023-05-13T04:54:42.823Z,97803.38
2023-05-13T04:57:09.538Z,97787.50
2023-05-13T04:59:36.168Z,97788.41
2023-05-13T05:02:02.903Z,97792.34
2023-05-13T05:04:29.580Z,97794.47
2023-05-13T05:06:56.227Z,97783.69
2023-05-13T05:09:22.937Z,97769.72
2023-05-13T05:11:50.690Z,97764.91
2023-05-13T05:14:17.582Z,97761.13
2023-05-13T05:16:44.407Z,97774.38
2023-05-13T05:19:11.098Z,97768.53
2023-05-13T05:21:37.773Z,97770.78
2023-05-13T05:24:05.551Z,97767.81
2023-05-13T05:26:32.236Z,97762.97
2023-05-13T05:28:58.939Z,97773.22
2023-05-13T05:31:27.715Z,97769.56
2023-05-13T05:33:56.406Z,97781.00
2023-05-13T05:36:22.980Z,97769.56
2023-05-13T05:38:49.578Z,97771.94
2023-05-13T05:41:16.406Z,97769.47
2023-05-13T05:43:43.069Z,97777.66
2023-05-13T05:46:09.730Z,97774.75
2023-05-13T05:48:36.494Z,97782.13
2023-05-13T05:51:03.382Z,97788.81
2023-05-13T05:53:30.015Z,97789.22
2023-05-13T05:55:56.691Z,97786.53
2023-05-13T05:58:23.545Z,97783.41
2023-05-13T06:00:50.221Z,97777.25
2023-05-13T06:03:17.027Z,97781.50
2023-05-13T06:05:43.940Z,97783.38
2023-05-13T06:08:10.640Z,97785.53
2023-05-13T06:10:38.595Z,97791.59
2023-05-13T06:13:05.582Z,97800.16
2023-05-13T06:15:32.596Z,97785.53
2023-05-13T06:17:59.367Z,97792.22
2023-05-13T06:20:26.035Z,97784.50
2023-05-13T06:22:52.681Z,97778.81
2023-05-13T06:25:19.377Z,97771.91
2023-05-13T06:27:46.015Z,97768.66
2023-05-13T06:30:12.963Z,97764.25
2023-05-13T06:32:42.890Z,97760.91
2023-05-13T06:35:17.022Z,97769.91
2023-05-13T06:37:43.672Z,97763.94
2023-05-13T06:40:10.612Z,97770.53
2023-05-13T06:42:40.499Z,97751.06
2023-05-13T06:45:08.499Z,97759.31
2023-05-13T06:47:35.950Z,97769.66
2023-05-13T06:50:03.917Z,97759.94
2023-05-13T06:52:31.637Z,97755.88
2023-05-13T06:54:59.956Z,97750.03
2023-05-13T06:57:38.771Z,97746.72
2023-05-13T07:00:09.226Z,97760.31
2023-05-13T07:02:35.879Z,97761.75
2023-05-13T07:05:03.248Z,97765.13
2023-05-13T07:07:29.757Z,97759.81
2023-05-13T07:09:56.367Z,97764.56
2023-05-13T07:12:23.164Z,97774.38
2023-05-13T07:14:49.852Z,97764.06
2023-05-13T07:17:17.444Z,97763.31
2023-05-13T07:19:44.162Z,97763.72
2023-05-13T07:22:11.516Z,97771.91
2023-05-13T07:24:38.582Z,97765.94
2023-05-13T07:27:05.424Z,97769.31
2023-05-13T07:29:32.468Z,97773.00
2023-05-13T07:32:04.023Z,97778.69
2023-05-13T07:34:30.877Z,97788.28
2023-05-13T07:36:58.094Z,97790.34
2023-05-13T07:39:25.445Z,97780.34
2023-05-13T07:41:51.980Z,97801.06
2023-05-13T07:44:18.815Z,97790.06
2023-05-13T07:46:45.531Z,97791.81
2023-05-13T07:49:12.201Z,97778.78
2023-05-13T07:51:38.825Z,97786.22
2023-05-13T07:54:05.479Z,97784.47
2023-05-13T07:56:32.150Z,97780.25
2023-05-13T07:58:58.769Z,97788.75
2023-05-13T08:01:25.739Z,97782.22
2023-05-13T08:03:52.544Z,97789.28
2023-05-13T08:06:19.700Z,97787.84
2023-05-13T08:08:46.305Z,97784.88
2023-05-13T08:11:13.684Z,97794.13
2023-05-13T08:13:40.191Z,97784.03
2023-05-13T08:16:09.987Z,97779.88
2023-05-13T08:18:36.722Z,97776.56
2023-05-13T08:21:03.562Z,97778.19
2023-05-13T08:23:43.294Z,97776.66
2023-05-13T08:26:11.741Z,97766.16
2023-05-13T08:28:38.415Z,97754.31
2023-05-13T08:31:05.213Z,97750.13
2023-05-13T08:33:32.795Z,97758.16
2023-05-13T08:36:00.686Z,97754.88
2023-05-13T08:38:27.323Z,97741.41
2023-05-13T08:40:54.153Z,97757.28
2023-05-13T08:43:24.417Z,97748.91
2023-05-13T08:45:53.454Z,97751.59
2023-05-13T08:48:21.074Z,97744.88
2023-05-13T08:50:48.512Z,97742.31
2023-05-13T08:53:16.599Z,97737.16
2023-05-13T08:55:43.195Z,97738.00
2023-05-13T08:58:09.862Z,97735.09
2023-05-13T09:00:37.143Z,97726.31
2023-05-13T09:03:03.770Z,97732.50
2023-05-13T09:05:31.981Z,97730.97
2023-05-13T09:07:59.055Z,97734.41
2023-05-13T09:10:25.661Z,97745.91
2023-05-13T09:12:54.232Z,97725.59
2023-05-13T09:15:23.353Z,97721.63
2023-05-13T09:18:11.045Z,97728.25
2023-05-13T09:20:37.800Z,97731.41
2023-05-13T09:23:09.266Z,97731.47
2023-05-13T09:25:37.648Z,97717.78
2023-05-13T09:28:06.635Z,97725.91
2023-05-13T09:30:43.890Z,97721.00
2023-05-13T09:33:14.256Z,97720.56
2023-05-13T09:35:53.076Z,97720.31
2023-05-13T09:38:21.249Z,97706.78
2023-05-13T09:40:58.785Z,97696.31
2023-05-13T09:43:28.394Z,97711.84
2023-05-13T09:45:56.950Z,97698.22
2023-05-13T09:48:28.792Z,97711.88
2023-05-13T09:50:57.937Z,97713.72
2023-05-13T09:53:25.569Z,97706.78
2023-05-13T09:55:53.730Z,97712.16
2023-05-13T09:58:22.180Z,97707.31
2023-05-13T10:00:49.196Z,97701.69
2023-05-13T10:03:16.439Z,97693.72
2023-05-13T10:05:43.786Z,97694.50
2023-05-13T10:08:13.600Z,97685.00
2023-05-13T10:10:41.713Z,97685.47
2023-05-13T10:13:16.525Z,97693.50
2023-05-13T10:15:53.227Z,97684.47
2023-05-13T10:18:21.464Z,97693.34
2023-05-13T10:20:53.700Z,97693.88
2023-05-13T10:23:22.674Z,97688.97
2023-05-13T10:25:50.595Z,97670.25
2023-05-13T10:28:17.503Z,97678.84
2023-05-13T10:30:45.231Z,97672.34
2023-05-13T10:33:12.425Z,97659.63
2023-05-13T10:35:43.289Z,97659.06
2023-05-13T10:38:39.113Z,97674.66
2023-05-13T10:41:19.029Z,97664.72
2023-05-13T10:43:46.250Z,97677.66
2023-05-13T10:46:13.623Z,97684.66
2023-05-13T10:48:41.869Z,97681.81
2023-05-13T10:51:09.689Z,97681.56
2023-05-13T10:53:43.196Z,97689.06
2023-05-13T10:56:10.136Z,97701.31
2023-05-13T10:58:38.128Z,97690.38
2023-05-13T11:01:14.582Z,97697.28
2023-05-13T11:03:42.444Z,97698.03
2023-05-13T11:06:27.162Z,97693.91
2023-05-13T11:08:55.902Z,97696.25
2023-05-13T11:11:26.552Z,97697.88
2023-05-13T11:14:11.112Z,97704.91
2023-05-13T11:16:38.233Z,97699.47
2023-05-13T11:19:09.118Z,97710.13
2023-05-13T11:21:39.672Z,97698.41
2023-05-13T11:24:08.083Z,97695.56
2023-05-13T11:26:56.297Z,97692.25
2023-05-13T11:29:33.650Z,97676.69
2023-05-13T11:32:01.834Z,97681.16
2023-05-13T11:34:29.011Z,97682.72
2023-05-13T11:37:07.687Z,97667.16
2023-05-13T11:39:34.941Z,97658.84
2023-05-13T11:42:06.643Z,97661.66
2023-05-13T11:44:34.949Z,97644.25
2023-05-13T11:47:06.290Z,97658.31
2023-05-13T11:49:40.334Z,97659.63
2023-05-13T11:52:06.987Z,97656.50
2023-05-13T11:54:44.367Z,97649.78
2023-05-13T11:57:25.359Z,97635.75
2023-05-13T12:00:04.958Z,97629.75
2023-05-13T12:02:37.445Z,97628.72
2023-05-13T12:05:06.660Z,97631.34
2023-05-13T12:07:35.064Z,97619.13
2023-05-13T12:10:03.138Z,97612.63
2023-05-13T12:12:31.365Z,97612.41
2023-05-13T12:15:03.296Z,97612.38
2023-05-13T12:17:31.313Z,97612.91
2023-05-13T12:20:18.252Z,97603.81
2023-05-13T12:22:44.754Z,97619.91
2023-05-13T12:25:42.094Z,97611.09
2023-05-13T12:28:09.596Z,97603.03
2023-05-13T12:30:37.741Z,97611.84
2023-05-13T12:33:08.145Z,97603.31
2023-05-13T12:35:34.839Z,97598.34
2023-05-13T12:38:03.466Z,97589.00
2023-05-13T12:40:30.556Z,97595.53
2023-05-13T12:43:01.654Z,97584.38
2023-05-13T12:45:32.612Z,97570.34
2023-05-13T12:48:00.847Z,97574.78
2023-05-13T12:50:27.731Z,97544.66
2023-05-13T12:52:54.442Z,97557.34
2023-05-13T12:55:21.329Z,97545.91
2023-05-13T12:58:03.044Z,97546.97
2023-05-13T13:00:31.082Z,97544.34
2023-05-13T13:02:58.172Z,97536.53
2023-05-13T13:05:25.702Z,97528.00
2023-05-13T13:07:52.455Z,97523.56
2023-05-13T13:10:19.373Z,97525.88
2023-05-13T13:12:46.215Z,97520.72
2023-05-13T13:15:12.914Z,97523.25
2023-05-13T13:17:39.698Z,97531.31
2023-05-13T13:20:07.573Z,97527.72
2023-05-13T13:22:37.150Z,97508.75
2023-05-13T13:25:07.746Z,97521.19
2023-05-13T13:27:35.098Z,97526.38
2023-05-13T13:30:01.946Z,97523.25
2023-05-13T13:32:28.781Z,97531.03
2023-05-13T13:34:55.941Z,97526.66
2023-05-13T13:37:22.640Z,97523.50
2023-05-13T13:39:49.240Z,97529.19
2023-05-13T13:42:15.838Z,97520.81
2023-05-13T13:44:42.734Z,97525.97
2023-05-13T13:47:09.938Z,97510.34
2023-05-13T13:49:36.497Z,97508.22
2023-05-13T13:52:03.167Z,97517.84
2023-05-13T13:54:29.846Z,97519.75
2023-05-13T13:56:56.491Z,97518.31
2023-05-13T13:59:23.133Z,97518.88
2023-05-13T14:01:49.872Z,97501.22
2023-05-13T14:04:27.562Z,97516.75
2023-05-13T14:06:57.727Z,97511.25
2023-05-13T14:09:24.981Z,97504.47
2023-05-13T14:11:51.807Z,97496.09
2023-05-13T14:14:19.011Z,97491.63
2023-05-13T14:16:45.646Z,97487.97
2023-05-13T14:19:12.340Z,97487.47
2023-05-13T14:21:39.216Z,97482.53
2023-05-13T14:24:08.514Z,97475.59
2023-05-13T14:26:35.362Z,97466.28
2023-05-13T14:29:02.009Z,97477.66
2023-05-13T14:31:28.715Z,97469.47
2023-05-13T14:33:55.524Z,97479.88
2023-05-13T14:36:22.995Z,97485.50
2023-05-13T14:38:49.730Z,97478.94
2023-05-13T14:41:20.012Z,97484.66
2023-05-13T14:43:47.339Z,97476.03
2023-05-13T14:46:14.301Z,97476.22
2023-05-13T14:48:40.854Z,97477.00
2023-05-13T14:51:07.643Z,97462.03
2023-05-13T14:53:34.316Z,97469.88
2023-05-13T14:56:00.999Z,97475.59
2023-05-13T14:58:27.630Z,97479.88
2023-05-13T15:00:55.112Z,97479.38
2023-05-13T15:03:21.848Z,97471.09
2023-05-13T15:05:50.146Z,97469.00
2023-05-13T15:08:16.790Z,97476.34
2023-05-13T15:10:43.429Z,97475.59
2023-05-13T15:13:10.344Z,97475.31
2023-05-13T15:15:37.032Z,97477.13
2023-05-13T15:18:03.863Z,97481.78
2023-05-13T15:20:31.717Z,97473.75
2023-05-13T15:22:58.299Z,97480.47
2023-05-13T15:25:24.947Z,97480.72
2023-05-13T15:27:51.908Z,97481.81
2023-05-13T15:30:18.549Z,97475.88
2023-05-13T15:32:45.329Z,97464.22
2023-05-13T15:35:11.991Z,97462.16
2023-05-13T15:37:42.721Z,97470.19
2023-05-13T15:40:09.794Z,97479.03
2023-05-13T15:42:36.935Z,97484.72
2023-05-13T15:45:03.748Z,97476.97
2023-05-13T15:47:30.573Z,97483.19
2023-05-13T15:49:57.361Z,97479.53
2023-05-13T15:52:24.009Z,97488.91
2023-05-13T15:54:50.622Z,97485.00
2023-05-13T15:57:19.245Z,97482.41
2023-05-13T15:59:45.992Z,97486.81
2023-05-13T16:02:12.700Z,97488.13
2023-05-13T16:04:39.500Z,97501.06
2023-05-13T16:07:10.917Z,97501.06
2023-05-13T16:09:38.572Z,97516.34
2023-05-13T16:12:05.828Z,97519.19
2023-05-13T16:14:32.601Z,97523.31
2023-05-13T16:17:00.610Z,97523.53
2023-05-13T16:19:27.249Z,97526.34
2023-05-13T16:21:53.918Z,97520.59
2023-05-13T16:24:20.594Z,97526.56
2023-05-13T16:26:47.271Z,97516.44
2023-05-13T16:29:14.074Z,97519.28
2023-05-13T16:31:40.697Z,97522.13
2023-05-13T16:34:07.400Z,97528.63
2023-05-13T16:36:34.013Z,97525.25
2023-05-13T16:39:00.667Z,97536.38
2023-05-13T16:41:27.406Z,97536.63
2023-05-13T16:43:53.996Z,97535.59
2023-05-13T16:46:20.680Z,97546.69
2023-05-13T16:48:47.307Z,97544.59
2023-05-13T16:51:13.894Z,97542.25
2023-05-13T16:53:40.465Z,97547.66
2023-05-13T16:56:07.206Z,97552.28
2023-05-13T16:58:33.867Z,97550.72
2023-05-13T17:01:01.068Z,97548.88
2023-05-13T17:03:27.941Z,97549.63
2023-05-13T17:05:54.737Z,97549.63
2023-05-13T17:08:24.607Z,97552.44
2023-05-13T17:10:51.282Z,97547.53
2023-05-13T17:13:19.766Z,97562.03
2023-05-13T17:15:47.191Z,97554.03
2023-05-13T17:18:13.701Z,97554.25
2023-05-13T17:20:40.430Z,97549.63
2023-05-13T17:23:07.197Z,97547.78
2023-05-13T17:25:33.807Z,97555.84
2023-05-13T17:28:00.347Z,97562.22
2023-05-13T17:30:27.018Z,97559.81
2023-05-13T17:32:53.713Z,97556.19
2023-05-13T17:35:20.433Z,97556.47
2023-05-13T17:37:47.082Z,97561.53
2023-05-13T17:40:13.948Z,97566.59
2023-05-13T17:42:40.607Z,97572.63
2023-05-13T17:45:08.027Z,97579.88
2023-05-13T17:47:34.784Z,97572.63
2023-05-13T17:50:01.406Z,97574.03
2023-05-13T17:52:28.054Z,97586.09
2023-05-13T17:54:54.731Z,97576.75
2023-05-13T17:57:21.421Z,97581.91
2023-05-13T17:59:48.050Z,97573.63
2023-05-13T18:02:14.841Z,97585.31
2023-05-13T18:04:42.137Z,97573.63
2023-05-13T18:07:09.098Z,97573.63
2023-05-13T18:09:36.218Z,97574.19
2023-05-13T18:12:03.371Z,97590.25
2023-05-13T18:14:32.404Z,97599.81
2023-05-13T18:16:59.675Z,97589.47
2023-05-13T18:19:26.830Z,97584.56
2023-05-13T18:21:53.565Z,97578.63
2023-05-13T18:24:20.156Z,97574.72
2023-05-13T18:26:46.754Z,97583.78
2023-05-13T18:29:13.653Z,97587.47
2023-05-13T18:31:40.338Z,97580.59
2023-05-13T18:34:07.085Z,97574.91
2023-05-13T18:36:33.716Z,97570.56
2023-05-13T18:39:00.483Z,97577.63
2023-05-13T18:41:27.098Z,97564.16
2023-05-13T18:43:53.792Z,97567.44
2023-05-13T18:46:20.851Z,97560.41
2023-05-13T18:48:47.466Z,97571.13
2023-05-13T18:51:14.651Z,97572.47
2023-05-13T18:53:41.441Z,97577.59
2023-05-13T18:56:08.090Z,97577.53
2023-05-13T18:58:34.736Z,97572.56
2023-05-13T19:01:02.107Z,97579.03
2023-05-13T19:03:28.878Z,97581.81
2023-05-13T19:05:55.645Z,97599.09
2023-05-13T19:08:22.576Z,97598.53
2023-05-13T19:10:49.878Z,97602.72
2023-05-13T19:13:19.765Z,97604.00
2023-05-13T19:15:46.673Z,97608.69
2023-05-13T19:18:13.408Z,97607.56
2023-05-13T19:20:40.373Z,97613.81
2023-05-13T19:23:07.068Z,97616.16
2023-05-13T19:25:33.699Z,97601.72
2023-05-13T19:28:01.210Z,97603.88
2023-05-13T19:30:28.475Z,97604.84
2023-05-13T19:32:55.110Z,97603.31
2023-05-13T19:35:23.471Z,97598.88
2023-05-13T19:37:50.469Z,97601.50
2023-05-13T19:40:17.272Z,97603.31
2023-05-13T19:42:43.963Z,97604.06
2023-05-13T19:45:11.087Z,97597.63
2023-05-13T19:47:38.424Z,97588.50
2023-05-13T19:50:05.598Z,97617.19
2023-05-13T19:52:32.217Z,97620.34
2023-05-13T19:54:58.854Z,97615.81
2023-05-13T19:57:27.510Z,97623.66
2023-05-13T19:59:56.047Z,97629.28
2023-05-13T20:02:22.746Z,97632.53
2023-05-13T20:04:49.602Z,97623.78
2023-05-13T20:07:17.502Z,97615.00
2023-05-13T20:09:44.168Z,97623.19
2023-05-13T20:12:10.843Z,97631.06
2023-05-13T20:14:49.299Z,97640.22
2023-05-13T20:17:18.394Z,97620.47
2023-05-13T20:19:48.940Z,97622.63
2023-05-13T20:22:17.039Z,97616.59
2023-05-13T20:24:46.459Z,97620.88
2023-05-13T20:27:13.140Z,97620.06
2023-05-13T20:29:43.409Z,97621.03
2023-05-13T20:32:10.489Z,97629.72
2023-05-13T20:34:37.483Z,97632.16
2023-05-13T20:37:04.757Z,97648.56
2023-05-13T20:39:31.494Z,97645.25
2023-05-13T20:41:58.319Z,97656.97
2023-05-13T20:44:25.138Z,97657.53
2023-05-13T20:46:51.798Z,97651.16
2023-05-13T20:49:18.967Z,97641.50
2023-05-13T20:51:48.276Z,97631.47
2023-05-13T20:54:15.544Z,97631.84
2023-05-13T20:56:42.160Z,97629.16
2023-05-13T20:59:09.072Z,97627.00
2023-05-13T21:01:36.065Z,97623.03
2023-05-13T21:04:06.102Z,97635.34
2023-05-13T21:06:33.177Z,97632.53
2023-05-13T21:08:59.877Z,97652.69
2023-05-13T21:11:26.630Z,97641.03
2023-05-13T21:13:53.222Z,97643.34
2023-05-13T21:16:19.938Z,97640.16
2023-05-13T21:18:46.679Z,97637.38
2023-05-13T21:21:13.361Z,97639.66
2023-05-13T21:23:40.826Z,97630.97
2023-05-13T21:26:07.454Z,97648.84
2023-05-13T21:28:34.130Z,97651.28
2023-05-13T21:31:00.908Z,97656.78
2023-05-13T21:33:28.771Z,97658.63
2023-05-13T21:35:55.512Z,97654.53
2023-05-13T21:38:22.490Z,97657.63
2023-05-13T21:40:49.420Z,97665.41
2023-05-13T21:43:16.100Z,97670.66
2023-05-13T21:45:42.761Z,97673.91
2023-05-13T21:48:09.471Z,97666.84
2023-05-13T21:50:36.163Z,97661.75
2023-05-13T21:53:02.804Z,97654.47
2023-05-13T21:55:33.963Z,97658.44
2023-05-13T21:58:02.110Z,97662.72
2023-05-13T22:00:28.731Z,97663.28
2023-05-13T22:02:57.309Z,97667.13
2023-05-13T22:05:24.106Z,97660.78
2023-05-13T22:07:51.261Z,97658.72
2023-05-13T22:10:17.999Z,97647.66
2023-05-13T22:12:44.592Z,97657.06
2023-05-13T22:15:11.546Z,97657.06
2023-05-13T22:17:38.223Z,97668.81
2023-05-13T22:20:05.977Z,97673.41
2023-05-13T22:22:32.574Z,97678.22
2023-05-13T22:24:59.284Z,97677.22
2023-05-13T22:27:25.892Z,97676.63
2023-05-13T22:29:52.449Z,97682.69
2023-05-13T22:32:19.030Z,97682.69
2023-05-13T22:34:45.657Z,97684.84
2023-05-13T22:37:14.324Z,97688.34
2023-05-13T22:39:41.039Z,97691.38
2023-05-13T22:42:07.810Z,97686.97
2023-05-13T22:44:35.034Z,97688.34
2023-05-13T22:47:01.600Z,97682.97
2023-05-13T22:49:28.236Z,97700.19
2023-05-13T22:51:55.013Z,97692.63
2023-05-13T22:54:21.639Z,97702.78
2023-05-13T22:56:48.175Z,97691.22
2023-05-13T22:59:14.768Z,97686.19
2023-05-13T23:01:41.764Z,97682.72
2023-05-13T23:04:08.510Z,97667.53
2023-05-13T23:06:35.198Z,97683.03
2023-05-13T23:09:02.165Z,97676.38
2023-05-13T23:11:28.837Z,97678.06
2023-05-13T23:13:55.499Z,97679.72
2023-05-13T23:16:22.199Z,97675.81
2023-05-13T23:18:48.861Z,97675.81
2023-05-13T23:21:15.703Z,97676.03
2023-05-13T23:23:42.435Z,97671.97
2023-05-13T23:26:09.076Z,97655.09
2023-05-13T23:28:35.801Z,97663.88
2023-05-13T23:31:02.481Z,97667.00
2023-05-13T23:33:29.101Z,97647.25
2023-05-13T23:35:56.327Z,97648.22
2023-05-13T23:38:23.302Z,97646.94
2023-05-13T23:40:49.949Z,97638.34
2023-05-13T23:43:16.664Z,97633.88
2023-05-13T23:45:43.425Z,97628.38
2023-05-13T23:48:10.112Z,97630.72
2023-05-13T23:50:37.223Z,97630.31
2023-05-13T23:53:03.915Z,97626.00
2023-05-13T23:55:30.502Z,97618.00
2023-05-13T23:57:57.120Z,97608.50
